sensor_id;sensor_type;location;lat;lon;timestamp;pressure;altitude;pressure_sealevel;temperature;humidity
5913;BME280;2982;42.684;23.356;2023-05-11T00:02:14;59042.03;;;0.01;0.00
5913;BME280;2982;42.684;23.356;2023-05-11T00:04:40;59042.03;;;0.01;0.00
5913;BME280;2982;42.684;23.356;2023-05-11T00:07:05;59042.03;;;0.01;0.00
5913;BME280;2982;42.684;23.356;2023-05-11T00:09:30;59042.03;;;0.01;0.00
5913;BME280;2982;42.684;23.356;2023-05-11T00:11:56;59042.03;;;0.01;0.00
5913;BME280;2982;42.684;23.356;2023-05-11T00:14:21;59042.03;;;0.01;0.00
5913;BME280;2982;42.684;23.356;2023-05-11T00:16:47;59042.03;;;0.01;0.00
5913;BME280;2982;42.684;23.356;2023-05-11T00:19:12;59042.03;;;0.01;0.00
5913;BME280;2982;42.684;23.356;2023-05-11T00:21:37;59042.03;;;0.01;0.00
5913;BME280;2982;42.684;23.356;2023-05-11T00:24:02;59042.03;;;0.01;0.00
5913;BME280;2982;42.684;23.356;2023-05-11T00:26:28;59042.03;;;0.01;0.00
5913;BME280;2982;42.684;23.356;2023-05-11T00:28:53;59042.03;;;0.01;0.00
5913;BME280;2982;42.684;23.356;2023-05-11T00:31:18;59042.03;;;0.01;0.00
5913;BME280;2982;42.684;23.356;2023-05-11T00:33:44;59042.03;;;0.01;0.00
5913;BME280;2982;42.684;23.356;2023-05-11T00:36:09;59042.03;;;0.01;0.00
5913;BME280;2982;42.684;23.356;2023-05-11T00:38:34;59042.03;;;0.01;0.00
5913;BME280;2982;42.684;23.356;2023-05-11T00:40:59;59042.03;;;0.01;0.00
5913;BME280;2982;42.684;23.356;2023-05-11T00:43:25;59042.03;;;0.01;0.00
5913;BME280;2982;42.684;23.356;2023-05-11T00:45:50;59042.03;;;0.01;0.00
5913;BME280;2982;42.684;23.356;2023-05-11T00:48:16;59042.03;;;0.01;0.00
5913;BME280;2982;42.684;23.356;2023-05-11T00:50:41;59042.03;;;0.01;0.00
5913;BME280;2982;42.684;23.356;2023-05-11T00:53:07;59042.03;;;0.01;0.00
5913;BME280;2982;42.684;23.356;2023-05-11T00:55:33;59042.03;;;0.01;0.00
5913;BME280;2982;42.684;23.356;2023-05-11T00:57:58;59042.03;;;0.01;0.00
5913;BME280;2982;42.684;23.356;2023-05-11T01:00:24;59042.03;;;0.01;0.00
5913;BME280;2982;42.684;23.356;2023-05-11T01:02:49;59042.03;;;0.01;0.00
5913;BME280;2982;42.684;23.356;2023-05-11T01:05:15;59042.03;;;0.01;0.00
5913;BME280;2982;42.684;23.356;2023-05-11T01:07:57;59042.03;;;0.01;0.00
5913;BME280;2982;42.684;23.356;2023-05-11T01:10:48;59042.03;;;0.01;0.00
5913;BME280;2982;42.684;23.356;2023-05-11T01:13:29;59042.03;;;0.01;0.00
5913;BME280;2982;42.684;23.356;2023-05-11T01:15:55;59042.03;;;0.01;0.00
5913;BME280;2982;42.684;23.356;2023-05-11T01:18:44;59042.03;;;0.01;0.00
5913;BME280;2982;42.684;23.356;2023-05-11T01:21:12;59042.03;;;0.01;0.00
5913;BME280;2982;42.684;23.356;2023-05-11T01:26:46;59042.03;;;0.01;0.00
5913;BME280;2982;42.684;23.356;2023-05-11T01:29:35;59042.03;;;0.01;0.00
5913;BME280;2982;42.684;23.356;2023-05-11T01:32:29;59042.03;;;0.01;0.00
5913;BME280;2982;42.684;23.356;2023-05-11T01:35:05;59042.03;;;0.01;0.00
5913;BME280;2982;42.684;23.356;2023-05-11T01:37:32;59042.03;;;0.01;0.00
5913;BME280;2982;42.684;23.356;2023-05-11T01:40:03;59042.03;;;0.01;0.00
5913;BME280;2982;42.684;23.356;2023-05-11T01:42:35;59042.03;;;0.01;0.00
5913;BME280;2982;42.684;23.356;2023-05-11T01:45:03;59042.03;;;0.01;0.00
5913;BME280;2982;42.684;23.356;2023-05-11T01:47:30;59042.03;;;0.01;0.00
5913;BME280;2982;42.684;23.356;2023-05-11T01:49:57;59042.03;;;0.01;0.00
5913;BME280;2982;42.684;23.356;2023-05-11T01:52:25;59042.03;;;0.01;0.00
5913;BME280;2982;42.684;23.356;2023-05-11T01:54:53;59042.03;;;0.01;0.00
5913;BME280;2982;42.684;23.356;2023-05-11T01:57:20;59042.03;;;0.01;0.00
5913;BME280;2982;42.684;23.356;2023-05-11T01:59:45;59042.03;;;0.01;0.00
5913;BME280;2982;42.684;23.356;2023-05-11T02:02:12;59042.03;;;0.01;0.00
5913;BME280;2982;42.684;23.356;2023-05-11T02:04:39;59042.03;;;0.01;0.00
5913;BME280;2982;42.684;23.356;2023-05-11T02:07:06;59042.03;;;0.01;0.00
5913;BME280;2982;42.684;23.356;2023-05-11T02:09:33;59042.03;;;0.01;0.00
5913;BME280;2982;42.684;23.356;2023-05-11T02:12:00;59042.03;;;0.01;0.00
5913;BME280;2982;42.684;23.356;2023-05-11T02:14:27;59042.03;;;0.01;0.00
5913;BME280;2982;42.684;23.356;2023-05-11T02:16:55;59042.03;;;0.01;0.00
5913;BME280;2982;42.684;23.356;2023-05-11T02:19:20;59042.03;;;0.01;0.00
5913;BME280;2982;42.684;23.356;2023-05-11T02:21:46;59042.03;;;0.01;0.00
5913;BME280;2982;42.684;23.356;2023-05-11T02:27:17;59042.03;;;0.01;0.00
5913;BME280;2982;42.684;23.356;2023-05-11T02:29:43;59042.03;;;0.01;0.00
5913;BME280;2982;42.684;23.356;2023-05-11T02:32:12;59042.03;;;0.01;0.00
5913;BME280;2982;42.684;23.356;2023-05-11T02:34:41;59042.03;;;0.01;0.00
5913;BME280;2982;42.684;23.356;2023-05-11T02:37:17;59042.03;;;0.01;0.00
5913;BME280;2982;42.684;23.356;2023-05-11T02:39:45;59042.03;;;0.01;0.00
5913;BME280;2982;42.684;23.356;2023-05-11T02:42:18;59042.03;;;0.01;0.00
5913;BME280;2982;42.684;23.356;2023-05-11T02:44:52;59042.03;;;0.01;0.00
5913;BME280;2982;42.684;23.356;2023-05-11T02:47:20;59042.03;;;0.01;0.00
5913;BME280;2982;42.684;23.356;2023-05-11T02:49:48;59042.03;;;0.01;0.00
5913;BME280;2982;42.684;23.356;2023-05-11T02:52:15;59042.03;;;0.01;0.00
5913;BME280;2982;42.684;23.356;2023-05-11T02:54:41;59042.03;;;0.01;0.00
5913;BME280;2982;42.684;23.356;2023-05-11T02:57:07;59042.03;;;0.01;0.00
5913;BME280;2982;42.684;23.356;2023-05-11T02:59:32;59042.03;;;0.01;0.00
5913;BME280;2982;42.684;23.356;2023-05-11T03:01:59;59042.03;;;0.01;0.00
5913;BME280;2982;42.684;23.356;2023-05-11T03:04:24;59042.03;;;0.01;0.00
5913;BME280;2982;42.684;23.356;2023-05-11T03:06:49;59042.03;;;0.01;0.00
5913;BME280;2982;42.684;23.356;2023-05-11T03:09:15;59042.03;;;0.01;0.00
5913;BME280;2982;42.684;23.356;2023-05-11T03:11:41;59042.03;;;0.01;0.00
5913;BME280;2982;42.684;23.356;2023-05-11T03:14:08;59042.03;;;0.01;0.00
5913;BME280;2982;42.684;23.356;2023-05-11T03:16:33;59042.03;;;0.01;0.00
5913;BME280;2982;42.684;23.356;2023-05-11T03:19:01;59042.03;;;0.01;0.00
5913;BME280;2982;42.684;23.356;2023-05-11T03:21:27;59042.03;;;0.01;0.00
5913;BME280;2982;42.684;23.356;2023-05-11T03:23:53;59042.03;;;0.01;0.00
5913;BME280;2982;42.684;23.356;2023-05-11T03:26:19;59042.03;;;0.01;0.00
5913;BME280;2982;42.684;23.356;2023-05-11T03:28:45;59042.03;;;0.01;0.00
5913;BME280;2982;42.684;23.356;2023-05-11T03:31:11;59042.03;;;0.01;0.00
5913;BME280;2982;42.684;23.356;2023-05-11T03:33:36;59042.03;;;0.01;0.00
5913;BME280;2982;42.684;23.356;2023-05-11T03:36:03;59042.03;;;0.01;0.00
5913;BME280;2982;42.684;23.356;2023-05-11T03:38:29;59042.03;;;0.01;0.00
5913;BME280;2982;42.684;23.356;2023-05-11T03:40:56;59042.03;;;0.01;0.00
5913;BME280;2982;42.684;23.356;2023-05-11T03:43:25;59042.03;;;0.01;0.00
5913;BME280;2982;42.684;23.356;2023-05-11T03:45:52;59042.03;;;0.01;0.00
5913;BME280;2982;42.684;23.356;2023-05-11T03:48:18;59042.03;;;0.01;0.00
5913;BME280;2982;42.684;23.356;2023-05-11T03:50:45;59042.03;;;0.01;0.00
5913;BME280;2982;42.684;23.356;2023-05-11T03:53:11;59042.03;;;0.01;0.00
5913;BME280;2982;42.684;23.356;2023-05-11T03:55:36;59042.03;;;0.01;0.00
5913;BME280;2982;42.684;23.356;2023-05-11T03:58:08;59042.03;;;0.01;0.00
5913;BME280;2982;42.684;23.356;2023-05-11T04:00:37;59042.03;;;0.01;0.00
5913;BME280;2982;42.684;23.356;2023-05-11T04:03:04;59042.03;;;0.01;0.00
5913;BME280;2982;42.684;23.356;2023-05-11T04:05:29;59042.03;;;0.01;0.00
5913;BME280;2982;42.684;23.356;2023-05-11T04:07:54;59042.03;;;0.01;0.00
5913;BME280;2982;42.684;23.356;2023-05-11T04:10:20;59042.03;;;0.01;0.00
5913;BME280;2982;42.684;23.356;2023-05-11T04:12:45;59042.03;;;0.01;0.00
5913;BME280;2982;42.684;23.356;2023-05-11T04:15:10;59042.03;;;0.01;0.00
5913;BME280;2982;42.684;23.356;2023-05-11T04:17:35;59042.03;;;0.01;0.00
5913;BME280;2982;42.684;23.356;2023-05-11T04:20:01;59042.03;;;0.01;0.00
5913;BME280;2982;42.684;23.356;2023-05-11T04:22:26;59042.03;;;0.01;0.00
5913;BME280;2982;42.684;23.356;2023-05-11T04:24:51;59042.03;;;0.01;0.00
5913;BME280;2982;42.684;23.356;2023-05-11T04:40:10;95158.06;;;8.84;100.00
5913;BME280;2982;42.684;23.356;2023-05-11T04:42:36;95157.69;;;8.73;100.00
5913;BME280;2982;42.684;23.356;2023-05-11T04:45:01;95178.56;;;8.78;100.00
5913;BME280;2982;42.684;23.356;2023-05-11T04:47:26;95174.78;;;8.68;100.00
5913;BME280;2982;42.684;23.356;2023-05-11T04:49:52;95180.16;;;8.61;100.00
5913;BME280;2982;42.684;23.356;2023-05-11T04:52:17;95164.38;;;8.54;100.00
5913;BME280;2982;42.684;23.356;2023-05-11T04:54:42;95178.47;;;8.61;100.00
5913;BME280;2982;42.684;23.356;2023-05-11T04:57:07;95169.41;;;8.56;100.00
5913;BME280;2982;42.684;23.356;2023-05-11T04:59:33;95178.66;;;8.57;100.00
5913;BME280;2982;42.684;23.356;2023-05-11T05:01:58;95176.41;;;8.49;100.00
5913;BME280;2982;42.684;23.356;2023-05-11T05:04:23;95176.41;;;8.49;100.00
5913;BME280;2982;42.684;23.356;2023-05-11T05:06:49;57515.69;;;-143.17;100.00
5913;BME280;2982;42.684;23.356;2023-05-11T05:09:14;95142.25;;;8.39;100.00
5913;BME280;2982;42.684;23.356;2023-05-11T05:11:39;95142.25;;;8.39;100.00
5913;BME280;2982;42.684;23.356;2023-05-11T05:14:04;95191.50;;;8.52;100.00
5913;BME280;2982;42.684;23.356;2023-05-11T05:16:30;95203.31;;;8.52;100.00
5913;BME280;2982;42.684;23.356;2023-05-11T05:18:55;95204.09;;;8.54;100.00
5913;BME280;2982;42.684;23.356;2023-05-11T05:21:20;95194.84;;;8.53;100.00
5913;BME280;2982;42.684;23.356;2023-05-11T05:23:45;95206.69;;;8.52;100.00
5913;BME280;2982;42.684;23.356;2023-05-11T05:26:11;95199.03;;;8.54;100.00
5913;BME280;2982;42.684;23.356;2023-05-11T05:28:36;95201.25;;;8.61;100.00
5913;BME280;2982;42.684;23.356;2023-05-11T05:31:01;95203.91;;;8.58;100.00
5913;BME280;2982;42.684;23.356;2023-05-11T05:33:26;95206.00;;;8.69;100.00
5913;BME280;2982;42.684;23.356;2023-05-11T05:35:52;95207.59;;;8.71;100.00
5913;BME280;2982;42.684;23.356;2023-05-11T05:38:17;95202.00;;;8.63;100.00
5913;BME280;2982;42.684;23.356;2023-05-11T05:40:42;95191.31;;;8.57;100.00
5913;BME280;2982;42.684;23.356;2023-05-11T05:43:07;95200.88;;;8.70;100.00
5913;BME280;2982;42.684;23.356;2023-05-11T05:45:33;95207.31;;;8.77;100.00
5913;BME280;2982;42.684;23.356;2023-05-11T05:47:58;95212.09;;;8.85;100.00
5913;BME280;2982;42.684;23.356;2023-05-11T05:50:23;95206.44;;;8.78;100.00
5913;BME280;2982;42.684;23.356;2023-05-11T05:52:48;95191.25;;;8.78;100.00
5913;BME280;2982;42.684;23.356;2023-05-11T05:55:14;95221.69;;;8.97;100.00
5913;BME280;2982;42.684;23.356;2023-05-11T05:57:39;95204.88;;;8.76;100.00
5913;BME280;2982;42.684;23.356;2023-05-11T06:00:05;95221.63;;;8.78;100.00
5913;BME280;2982;42.684;23.356;2023-05-11T06:02:30;95207.00;;;8.65;100.00
5913;BME280;2982;42.684;23.356;2023-05-11T06:04:55;95226.88;;;8.74;100.00
5913;BME280;2982;42.684;23.356;2023-05-11T06:07:21;95227.34;;;8.83;100.00
5913;BME280;2982;42.684;23.356;2023-05-11T06:09:46;95223.88;;;8.86;100.00
5913;BME280;2982;42.684;23.356;2023-05-11T06:12:12;95219.00;;;8.81;100.00
5913;BME280;2982;42.684;23.356;2023-05-11T06:14:37;95229.81;;;8.85;100.00
5913;BME280;2982;42.684;23.356;2023-05-11T06:17:02;95231.84;;;8.77;100.00
5913;BME280;2982;42.684;23.356;2023-05-11T06:19:28;95223.53;;;8.73;100.00
5913;BME280;2982;42.684;23.356;2023-05-11T06:21:53;95238.16;;;8.87;100.00
5913;BME280;2982;42.684;23.356;2023-05-11T06:24:18;95238.78;;;9.12;100.00
5913;BME280;2982;42.684;23.356;2023-05-11T06:26:43;95240.31;;;9.16;100.00
5913;BME280;2982;42.684;23.356;2023-05-11T06:29:09;95243.53;;;9.20;100.00
5913;BME280;2982;42.684;23.356;2023-05-11T06:31:34;95239.63;;;9.13;100.00
5913;BME280;2982;42.684;23.356;2023-05-11T06:33:59;95229.47;;;9.13;100.00
5913;BME280;2982;42.684;23.356;2023-05-11T06:36:25;95237.19;;;9.10;100.00
5913;BME280;2982;42.684;23.356;2023-05-11T06:38:50;95245.66;;;9.29;100.00
5913;BME280;2982;42.684;23.356;2023-05-11T06:41:15;95251.50;;;9.31;100.00
5913;BME280;2982;42.684;23.356;2023-05-11T06:43:40;95245.81;;;9.26;100.00
5913;BME280;2982;42.684;23.356;2023-05-11T06:46:06;95243.03;;;9.32;100.00
5913;BME280;2982;42.684;23.356;2023-05-11T06:48:31;95249.53;;;9.38;100.00
5913;BME280;2982;42.684;23.356;2023-05-11T06:50:56;95247.72;;;9.21;100.00
5913;BME280;2982;42.684;23.356;2023-05-11T06:53:22;95238.50;;;9.00;100.00
5913;BME280;2982;42.684;23.356;2023-05-11T06:55:47;95244.00;;;9.09;100.00
5913;BME280;2982;42.684;23.356;2023-05-11T06:58:12;95253.75;;;9.18;100.00
5913;BME280;2982;42.684;23.356;2023-05-11T07:00:38;95227.50;;;9.19;100.00
5913;BME280;2982;42.684;23.356;2023-05-11T07:03:04;95246.53;;;9.48;100.00
5913;BME280;2982;42.684;23.356;2023-05-11T07:05:29;95241.41;;;9.68;100.00
5913;BME280;2982;42.684;23.356;2023-05-11T07:07:55;95238.88;;;9.68;100.00
5913;BME280;2982;42.684;23.356;2023-05-11T07:10:20;95231.13;;;9.71;100.00
5913;BME280;2982;42.684;23.356;2023-05-11T07:12:46;95230.19;;;9.74;100.00
5913;BME280;2982;42.684;23.356;2023-05-11T07:15:11;95233.59;;;9.92;100.00
5913;BME280;2982;42.684;23.356;2023-05-11T07:17:36;95240.94;;;9.98;100.00
5913;BME280;2982;42.684;23.356;2023-05-11T07:20:01;95253.34;;;10.23;100.00
5913;BME280;2982;42.684;23.356;2023-05-11T07:22:27;95249.88;;;10.42;100.00
5913;BME280;2982;42.684;23.356;2023-05-11T07:24:52;95239.22;;;10.53;100.00
5913;BME280;2982;42.684;23.356;2023-05-11T07:27:17;95252.00;;;10.69;100.00
5913;BME280;2982;42.684;23.356;2023-05-11T07:29:43;95247.31;;;10.95;100.00
5913;BME280;2982;42.684;23.356;2023-05-11T07:32:08;95249.75;;;10.97;100.00
5913;BME280;2982;42.684;23.356;2023-05-11T07:34:33;95258.00;;;11.19;100.00
5913;BME280;2982;42.684;23.356;2023-05-11T07:36:59;95247.50;;;11.42;100.00
5913;BME280;2982;42.684;23.356;2023-05-11T07:39:24;95250.09;;;11.41;100.00
5913;BME280;2982;42.684;23.356;2023-05-11T07:41:49;95247.97;;;11.33;100.00
5913;BME280;2982;42.684;23.356;2023-05-11T07:44:15;95243.00;;;11.47;100.00
5913;BME280;2982;42.684;23.356;2023-05-11T07:46:40;95248.56;;;11.87;100.00
5913;BME280;2982;42.684;23.356;2023-05-11T07:49:05;95242.50;;;12.05;100.00
5913;BME280;2982;42.684;23.356;2023-05-11T07:51:30;95225.66;;;12.18;100.00
5913;BME280;2982;42.684;23.356;2023-05-11T07:53:56;95247.94;;;12.30;100.00
5913;BME280;2982;42.684;23.356;2023-05-11T07:56:21;95248.06;;;12.43;100.00
5913;BME280;2982;42.684;23.356;2023-05-11T07:58:46;95248.69;;;12.62;100.00
5913;BME280;2982;42.684;23.356;2023-05-11T08:01:11;95206.53;;;12.87;100.00
5913;BME280;2982;42.684;23.356;2023-05-11T08:03:37;95254.84;;;13.48;100.00
5913;BME280;2982;42.684;23.356;2023-05-11T08:06:02;95237.63;;;13.51;100.00
5913;BME280;2982;42.684;23.356;2023-05-11T08:08:28;95250.72;;;13.45;100.00
5913;BME280;2982;42.684;23.356;2023-05-11T08:10:53;95250.44;;;13.21;100.00
5913;BME280;2982;42.684;23.356;2023-05-11T08:13:18;95247.91;;;13.36;100.00
5913;BME280;2982;42.684;23.356;2023-05-11T08:15:44;95249.97;;;13.15;100.00
5913;BME280;2982;42.684;23.356;2023-05-11T08:18:09;95250.63;;;13.33;100.00
5913;BME280;2982;42.684;23.356;2023-05-11T08:20:34;95246.53;;;13.58;100.00
5913;BME280;2982;42.684;23.356;2023-05-11T08:22:59;95244.53;;;13.49;100.00
5913;BME280;2982;42.684;23.356;2023-05-11T08:25:25;95248.09;;;13.47;100.00
5913;BME280;2982;42.684;23.356;2023-05-11T08:27:50;95225.00;;;13.77;100.00
5913;BME280;2982;42.684;23.356;2023-05-11T08:30:15;95238.47;;;14.21;100.00
5913;BME280;2982;42.684;23.356;2023-05-11T08:32:41;95239.78;;;13.86;100.00
5913;BME280;2982;42.684;23.356;2023-05-11T08:35:06;95242.09;;;13.76;100.00
5913;BME280;2982;42.684;23.356;2023-05-11T08:37:31;95249.00;;;13.46;100.00
5913;BME280;2982;42.684;23.356;2023-05-11T08:39:57;95249.75;;;13.34;100.00
5913;BME280;2982;42.684;23.356;2023-05-11T08:42:26;95251.75;;;13.57;100.00
5913;BME280;2982;42.684;23.356;2023-05-11T08:44:54;95250.47;;;13.50;100.00
5913;BME280;2982;42.684;23.356;2023-05-11T08:47:20;95248.66;;;13.66;100.00
5913;BME280;2982;42.684;23.356;2023-05-11T08:49:45;95244.81;;;13.73;100.00
5913;BME280;2982;42.684;23.356;2023-05-11T08:52:12;95248.09;;;13.47;100.00
5913;BME280;2982;42.684;23.356;2023-05-11T08:54:38;95236.03;;;13.91;100.00
5913;BME280;2982;42.684;23.356;2023-05-11T08:57:03;95247.53;;;13.98;100.00
5913;BME280;2982;42.684;23.356;2023-05-11T08:59:29;95228.94;;;13.82;100.00
5913;BME280;2982;42.684;23.356;2023-05-11T09:01:55;95247.84;;;13.51;100.00
5913;BME280;2982;42.684;23.356;2023-05-11T09:04:21;95235.59;;;13.14;100.00
5913;BME280;2982;42.684;23.356;2023-05-11T09:06:48;95220.28;;;13.14;100.00
5913;BME280;2982;42.684;23.356;2023-05-11T09:09:14;95247.91;;;13.36;100.00
5913;BME280;2982;42.684;23.356;2023-05-11T09:11:39;95241.59;;;13.13;100.00
5913;BME280;2982;42.684;23.356;2023-05-11T09:14:05;95232.75;;;13.18;100.00
5913;BME280;2982;42.684;23.356;2023-05-11T09:16:30;95233.78;;;13.44;100.00
5913;BME280;2982;42.684;23.356;2023-05-11T09:19:01;95206.72;;;13.56;100.00
5913;BME280;2982;42.684;23.356;2023-05-11T09:21:29;95235.16;;;13.78;100.00
5913;BME280;2982;42.684;23.356;2023-05-11T09:23:58;95234.66;;;13.86;100.00
5913;BME280;2982;42.684;23.356;2023-05-11T09:26:24;95237.00;;;13.76;100.00
5913;BME280;2982;42.684;23.356;2023-05-11T09:28:53;95228.91;;;13.96;100.00
5913;BME280;2982;42.684;23.356;2023-05-11T09:31:34;95245.47;;;14.32;100.00
5913;BME280;2982;42.684;23.356;2023-05-11T09:34:16;95225.72;;;14.07;100.00
5913;BME280;2982;42.684;23.356;2023-05-11T09:36:46;95212.53;;;13.72;100.00
5913;BME280;2982;42.684;23.356;2023-05-11T09:39:12;95240.81;;;13.55;100.00
5913;BME280;2982;42.684;23.356;2023-05-11T09:41:38;95227.94;;;13.28;100.00
5913;BME280;2982;42.684;23.356;2023-05-11T09:46:31;95239.41;;;13.21;100.00
5913;BME280;2982;42.684;23.356;2023-05-11T09:48:58;95236.59;;;13.26;100.00
5913;BME280;2982;42.684;23.356;2023-05-11T09:51:29;95238.44;;;13.08;100.00
5913;BME280;2982;42.684;23.356;2023-05-11T09:53:54;95223.25;;;13.06;100.00
5913;BME280;2982;42.684;23.356;2023-05-11T09:56:19;95221.13;;;13.43;100.00
5913;BME280;2982;42.684;23.356;2023-05-11T09:58:49;95226.91;;;13.16;100.00
5913;BME280;2982;42.684;23.356;2023-05-11T10:01:15;95218.19;;;13.35;100.00
5913;BME280;2982;42.684;23.356;2023-05-11T10:04:00;95214.56;;;13.39;100.00
5913;BME280;2982;42.684;23.356;2023-05-11T10:06:26;95215.28;;;13.41;100.00
5913;BME280;2982;42.684;23.356;2023-05-11T10:08:53;95175.47;;;13.24;100.00
5913;BME280;2982;42.684;23.356;2023-05-11T10:11:21;95135.06;;;13.02;100.00
5913;BME280;2982;42.684;23.356;2023-05-11T10:13:46;95207.13;;;13.06;100.00
5913;BME280;2982;42.684;23.356;2023-05-11T10:16:14;95204.59;;;12.76;100.00
5913;BME280;2982;42.684;23.356;2023-05-11T10:18:41;95193.41;;;13.51;100.00
5913;BME280;2982;42.684;23.356;2023-05-11T10:21:06;95202.09;;;14.03;100.00
5913;BME280;2982;42.684;23.356;2023-05-11T10:23:32;95202.94;;;14.31;100.00
5913;BME280;2982;42.684;23.356;2023-05-11T10:25:59;95158.94;;;13.58;100.00
5913;BME280;2982;42.684;23.356;2023-05-11T10:28:24;95183.69;;;13.43;100.00
5913;BME280;2982;42.684;23.356;2023-05-11T10:30:51;95189.09;;;13.94;100.00
5913;BME280;2982;42.684;23.356;2023-05-11T10:33:16;95182.28;;;14.34;100.00
5913;BME280;2982;42.684;23.356;2023-05-11T10:35:43;95184.13;;;14.32;100.00
5913;BME280;2982;42.684;23.356;2023-05-11T10:38:09;95162.31;;;14.14;100.00
5913;BME280;2982;42.684;23.356;2023-05-11T10:40:37;95133.19;;;14.16;100.00
5913;BME280;2982;42.684;23.356;2023-05-11T10:43:33;95172.31;;;14.83;100.00
5913;BME280;2982;42.684;23.356;2023-05-11T10:46:29;95157.28;;;14.78;100.00
5913;BME280;2982;42.684;23.356;2023-05-11T11:00:10;95170.91;;;14.91;100.00
5913;BME280;2982;42.684;23.356;2023-05-11T11:02:36;95179.28;;;14.93;100.00
5913;BME280;2982;42.684;23.356;2023-05-11T11:05:02;95170.78;;;14.80;100.00
5913;BME280;2982;42.684;23.356;2023-05-11T11:07:28;95172.84;;;15.13;100.00
5913;BME280;2982;42.684;23.356;2023-05-11T11:09:57;95177.25;;;15.24;100.00
5913;BME280;2982;42.684;23.356;2023-05-11T11:12:23;95162.84;;;14.97;100.00
5913;BME280;2982;42.684;23.356;2023-05-11T11:14:56;95155.44;;;15.18;100.00
5913;BME280;2982;42.684;23.356;2023-05-11T11:17:24;95167.31;;;15.19;100.00
5913;BME280;2982;42.684;23.356;2023-05-11T11:19:50;95170.91;;;15.17;100.00
5913;BME280;2982;42.684;23.356;2023-05-11T11:25:02;95152.16;;;14.91;100.00
5913;BME280;2982;42.684;23.356;2023-05-11T11:32:45;95161.34;;;14.68;100.00
5913;BME280;2982;42.684;23.356;2023-05-11T11:38:05;95135.91;;;14.92;100.00
5913;BME280;2982;42.684;23.356;2023-05-11T11:43:15;95157.69;;;15.48;100.00
5913;BME280;2982;42.684;23.356;2023-05-11T11:51:10;95160.34;;;15.72;100.00
5913;BME280;2982;42.684;23.356;2023-05-11T11:56:01;95153.38;;;15.98;96.46
5913;BME280;2982;42.684;23.356;2023-05-11T12:01:05;95155.31;;;15.70;100.00
5913;BME280;2982;42.684;23.356;2023-05-11T12:03:32;95160.13;;;15.75;99.54
5913;BME280;2982;42.684;23.356;2023-05-11T12:06:00;95146.59;;;15.73;99.49
5913;BME280;2982;42.684;23.356;2023-05-11T12:08:28;95154.53;;;15.57;100.00
5913;BME280;2982;42.684;23.356;2023-05-11T12:10:53;95146.16;;;14.92;100.00
5913;BME280;2982;42.684;23.356;2023-05-11T12:13:19;95139.34;;;14.66;100.00
5913;BME280;2982;42.684;23.356;2023-05-11T12:15:45;95150.44;;;15.04;100.00
5913;BME280;2982;42.684;23.356;2023-05-11T12:18:20;95138.44;;;15.17;100.00
5913;BME280;2982;42.684;23.356;2023-05-11T12:20:46;95150.13;;;14.83;100.00
5913;BME280;2982;42.684;23.356;2023-05-11T12:23:12;95138.66;;;14.76;100.00
5913;BME280;2982;42.684;23.356;2023-05-11T12:25:37;95148.94;;;14.49;100.00
5913;BME280;2982;42.684;23.356;2023-05-11T12:28:02;95132.13;;;14.06;100.00
5913;BME280;2982;42.684;23.356;2023-05-11T12:30:30;95112.34;;;14.49;100.00
5913;BME280;2982;42.684;23.356;2023-05-11T12:32:56;95137.72;;;14.65;100.00
5913;BME280;2982;42.684;23.356;2023-05-11T12:35:26;95120.34;;;15.08;100.00
5913;BME280;2982;42.684;23.356;2023-05-11T12:37:52;95109.88;;;15.36;100.00
5913;BME280;2982;42.684;23.356;2023-05-11T12:40:18;95098.41;;;15.41;100.00
5913;BME280;2982;42.684;23.356;2023-05-11T12:42:50;95112.28;;;15.75;98.80
5913;BME280;2982;42.684;23.356;2023-05-11T12:45:17;95115.41;;;15.42;100.00
5913;BME280;2982;42.684;23.356;2023-05-11T12:47:42;95113.50;;;15.21;100.00
5913;BME280;2982;42.684;23.356;2023-05-11T12:50:08;95109.78;;;15.12;100.00
5913;BME280;2982;42.684;23.356;2023-05-11T12:52:34;95105.00;;;15.08;100.00
5913;BME280;2982;42.684;23.356;2023-05-11T12:54:59;95108.72;;;15.40;100.00
5913;BME280;2982;42.684;23.356;2023-05-11T12:57:26;95095.69;;;15.19;100.00
5913;BME280;2982;42.684;23.356;2023-05-11T13:00:12;95098.75;;;15.12;100.00
5913;BME280;2982;42.684;23.356;2023-05-11T13:02:50;95097.94;;;14.98;100.00
5913;BME280;2982;42.684;23.356;2023-05-11T13:05:18;95095.69;;;14.94;100.00
5913;BME280;2982;42.684;23.356;2023-05-11T13:07:43;95061.66;;;14.68;100.00
5913;BME280;2982;42.684;23.356;2023-05-11T13:10:11;95087.22;;;14.68;100.00
5913;BME280;2982;42.684;23.356;2023-05-11T13:12:56;95085.66;;;14.66;100.00
5913;BME280;2982;42.684;23.356;2023-05-11T13:15:23;95096.81;;;14.77;100.00
5913;BME280;2982;42.684;23.356;2023-05-11T13:17:59;95093.44;;;15.15;100.00
5913;BME280;2982;42.684;23.356;2023-05-11T13:20:26;95079.00;;;15.14;100.00
5913;BME280;2982;42.684;23.356;2023-05-11T13:23:12;95079.44;;;14.95;100.00
5913;BME280;2982;42.684;23.356;2023-05-11T13:28:09;95068.19;;;14.72;100.00
5913;BME280;2982;42.684;23.356;2023-05-11T13:30:34;95083.09;;;14.66;100.00
5913;BME280;2982;42.684;23.356;2023-05-11T13:32:59;95079.63;;;14.67;100.00
5913;BME280;2982;42.684;23.356;2023-05-11T13:35:24;95076.28;;;14.91;100.00
5913;BME280;2982;42.684;23.356;2023-05-11T13:37:50;95088.22;;;15.16;100.00
5913;BME280;2982;42.684;23.356;2023-05-11T13:40:15;95082.19;;;15.05;100.00
5913;BME280;2982;42.684;23.356;2023-05-11T13:42:40;95080.44;;;15.05;100.00
5913;BME280;2982;42.684;23.356;2023-05-11T13:45:06;95067.16;;;14.87;100.00
5913;BME280;2982;42.684;23.356;2023-05-11T13:47:31;95085.56;;;15.05;100.00
5913;BME280;2982;42.684;23.356;2023-05-11T13:49:57;95083.91;;;15.17;100.00
5913;BME280;2982;42.684;23.356;2023-05-11T13:52:22;95075.34;;;15.05;100.00
5913;BME280;2982;42.684;23.356;2023-05-11T13:54:47;95069.91;;;14.72;100.00
5913;BME280;2982;42.684;23.356;2023-05-11T13:57:13;95071.78;;;14.82;100.00
5913;BME280;2982;42.684;23.356;2023-05-11T13:59:38;95073.47;;;15.07;100.00
5913;BME280;2982;42.684;23.356;2023-05-11T14:02:04;95067.34;;;15.10;100.00
5913;BME280;2982;42.684;23.356;2023-05-11T14:04:29;95047.41;;;14.89;100.00
5913;BME280;2982;42.684;23.356;2023-05-11T14:06:54;95055.59;;;14.82;100.00
5913;BME280;2982;42.684;23.356;2023-05-11T14:09:21;95081.06;;;14.58;100.00
5913;BME280;2982;42.684;23.356;2023-05-11T14:11:47;95074.81;;;14.37;100.00